Time;durP1;ratioP1;P1;durP2;ratioP2;P2;SDS_P1;SDS_P2;PMS_P1;PMS_P2;Temp;Humidity;BMP_temperature;BMP_pressure;BME280_temperature;BME280_humidity;BME280_pressure;Samples;Min_cycle;Max_cycle;Signal;HPM_P1;HPM_P2
2021/12/02 00:00:27;;;;;;;59.42;54.72;;;;;;;0.78;100.00;100593.41;5054056;28;20061;-78
2021/12/02 00:02:54;;;;;;;57.85;53.08;;;;;;;0.57;100.00;100588.41;5053781;28;20053;-80
2021/12/02 00:05:22;;;;;;;55.65;51.22;;;;;;;0.37;100.00;100591.09;5053007;28;20053;-77
2021/12/02 00:07:49;;;;;;;57.47;52.92;;;;;;;0.56;100.00;100587.56;5053894;28;20067;-78
2021/12/02 00:10:15;;;;;;;60.08;55.30;;;;;;;0.85;100.00;100586.63;5054097;28;20059;-78
2021/12/02 00:12:42;;;;;;;61.90;56.97;;;;;;;1.15;100.00;100585.50;5053948;28;20118;-79
2021/12/02 00:15:18;;;;;;;56.08;51.63;;;;;;;0.56;100.00;100581.53;5053614;28;20481;-77
2021/12/02 00:17:53;;;;;;;59.47;54.95;;;;;;;0.43;100.00;100592.31;5053801;28;20055;-79
2021/12/02 00:23:28;;;;;;;59.20;54.75;;;;;;;0.30;100.00;100594.41;5053701;28;20543;-77
2021/12/02 00:25:57;;;;;;;58.60;54.22;;;;;;;0.50;100.00;100595.19;5053719;28;20084;-80
2021/12/02 00:28:25;;;;;;;57.92;53.45;;;;;;;0.31;100.00;100591.66;5053453;28;20110;-77
2021/12/02 00:30:54;;;;;;;59.35;54.58;;;;;;;0.06;100.00;100587.03;5053630;28;20045;-78
2021/12/02 00:33:23;;;;;;;61.90;56.80;;;;;;;-0.19;100.00;100594.50;5053026;28;20536;-81
2021/12/02 00:35:50;;;;;;;61.38;56.08;;;;;;;-0.10;100.00;100596.28;5052921;28;20448;-77
2021/12/02 00:38:19;;;;;;;58.80;54.20;;;;;;;-0.10;100.00;100595.47;5053296;28;20049;-79
2021/12/02 00:40:46;;;;;;;61.85;56.83;;;;;;;0.31;100.00;100598.69;5053370;28;20061;-77
2021/12/02 00:43:13;;;;;;;59.88;54.90;;;;;;;0.61;100.00;100603.66;5053559;28;20456;-78
2021/12/02 00:45:40;;;;;;;58.78;53.95;;;;;;;0.16;100.00;100598.31;5053737;28;20106;-78
2021/12/02 00:48:10;;;;;;;60.00;55.20;;;;;;;0.29;100.00;100598.81;5053123;28;20158;-80
2021/12/02 00:50:38;;;;;;;63.78;59.05;;;;;;;0.40;100.00;100593.41;5053769;28;20049;-79
2021/12/02 00:53:06;;;;;;;65.28;60.38;;;;;;;0.56;100.00;100602.44;5053473;28;20061;-79
2021/12/02 00:55:34;;;;;;;62.05;57.45;;;;;;;0.30;100.00;100605.69;5053418;28;20072;-78
2021/12/02 00:58:01;;;;;;;60.40;56.03;;;;;;;0.19;100.00;100611.09;5053389;28;20103;-77
2021/12/02 01:00:29;;;;;;;60.15;55.17;;;;;;;0.00;100.00;100606.72;5053375;28;20049;-80
2021/12/02 01:02:59;;;;;;;64.85;59.85;;;;;;;-0.07;100.00;100597.78;5053247;28;20090;-78
2021/12/02 01:05:28;;;;;;;63.03;57.83;;;;;;;-0.25;100.00;100598.47;5051843;28;20080;-79
2021/12/02 01:07:55;;;;;;;58.67;53.95;;;;;;;-0.41;100.00;100603.44;5053280;28;20076;-77
2021/12/02 01:10:22;;;;;;;64.45;59.28;;;;;;;-0.42;100.00;100614.00;5052942;28;20053;-81
2021/12/02 01:12:50;;;;;;;59.70;54.70;;;;;;;-0.12;100.00;100606.06;5052945;28;20501;-79
2021/12/02 01:15:17;;;;;;;59.15;54.35;;;;;;;-0.30;100.00;100602.50;5052974;28;20462;-79
2021/12/02 01:17:43;;;;;;;60.20;55.40;;;;;;;-0.25;100.00;100598.47;5053242;28;20049;-77
2021/12/02 01:20:11;;;;;;;62.38;57.38;;;;;;;-0.34;100.00;100601.94;5052867;28;20049;-78
2021/12/02 01:22:40;;;;;;;62.95;57.95;;;;;;;-0.62;100.00;100600.16;5052876;28;20465;-77
2021/12/02 01:25:08;;;;;;;65.18;59.33;;;;;;;-0.45;100.00;100589.03;5053174;28;20079;-80
2021/12/02 01:27:37;;;;;;;66.18;60.15;;;;;;;-0.56;100.00;100589.16;5053136;28;20098;-79
2021/12/02 01:30:06;;;;;;;64.05;58.75;;;;;;;-0.70;100.00;100585.16;5052805;28;20045;-80
2021/12/02 01:32:34;;;;;;;63.03;58.03;;;;;;;-0.72;100.00;100579.28;5052753;28;20478;-79
2021/12/02 01:35:03;;;;;;;63.00;57.83;;;;;;;-0.80;100.00;100573.91;5052943;28;20496;-77
2021/12/02 01:37:30;;;;;;;61.45;56.28;;;;;;;-0.76;100.00;100576.09;5052747;28;20087;-79
2021/12/02 01:39:59;;;;;;;59.90;54.95;;;;;;;-0.73;100.00;100575.84;5052810;28;20041;-77
2021/12/02 01:42:28;;;;;;;60.47;55.35;;;;;;;-0.74;100.00;100586.41;5052697;28;20053;-78
2021/12/02 01:44:57;;;;;;;58.63;53.92;;;;;;;-0.79;100.00;100583.38;5053480;28;20061;-79
2021/12/02 01:47:27;;;;;;;57.08;52.40;;;;;;;-0.78;100.00;100577.22;5056592;28;20114;-78
2021/12/02 01:49:57;;;;;;;60.58;55.78;;;;;;;-1.00;100.00;100580.84;5056647;28;20048;-79
2021/12/02 01:52:30;;;;;;;61.58;56.58;;;;;;;-1.13;100.00;100585.50;5056707;28;20496;-80
2021/12/02 01:55:09;;;;;;;59.78;55.17;;;;;;;-1.11;100.00;100571.38;5056526;28;20068;-79
2021/12/02 01:57:38;;;;;;;59.83;54.97;;;;;;;-1.30;100.00;100576.53;5056542;28;20114;-76
2021/12/02 02:00:09;;;;;;;62.85;57.13;;;;;;;-1.04;100.00;100567.28;5056224;28;20048;-80
2021/12/02 02:02:38;;;;;;;66.90;60.55;;;;;;;-1.19;100.00;100566.81;5056336;28;20057;-79
2021/12/02 02:05:10;;;;;;;67.78;60.90;;;;;;;-1.17;100.00;100566.72;5054902;28;20057;-79
2021/12/02 02:07:42;;;;;;;71.13;64.05;;;;;;;-1.21;100.00;100570.53;5056268;28;20049;-79
2021/12/02 02:10:11;;;;;;;78.60;69.75;;;;;;;-1.22;100.00;100563.66;5055979;28;20045;-77
2021/12/02 02:12:38;;;;;;;82.63;71.93;;;;;;;-1.21;100.00;100560.09;5055922;28;20052;-79
2021/12/02 02:15:05;;;;;;;78.40;67.40;;;;;;;-1.22;100.00;100555.84;5056004;28;20052;-81
2021/12/02 02:17:37;;;;;;;77.88;67.07;;;;;;;-1.19;100.00;100552.97;5056160;28;20052;-77
2021/12/02 02:20:07;;;;;;;77.80;69.78;;;;;;;-1.22;100.00;100550.63;5056144;28;20208;-79
2021/12/02 02:22:35;;;;;;;72.97;65.90;;;;;;;-1.24;100.00;100558.59;5056041;28;20057;-79
2021/12/02 02:25:02;;;;;;;66.88;60.45;;;;;;;-1.32;100.00;100570.66;5055657;28;20052;-80
2021/12/02 02:27:29;;;;;;;76.88;69.57;;;;;;;-1.23;100.00;100573.28;5055919;28;20056;-77
2021/12/02 02:29:56;;;;;;;76.07;69.00;;;;;;;-1.39;100.00;100571.19;5056185;28;20057;-79
2021/12/02 02:32:25;;;;;;;71.85;65.07;;;;;;;-1.42;100.00;100579.25;5055869;28;20053;-78
2021/12/02 02:34:52;;;;;;;72.50;65.40;;;;;;;-1.29;100.00;100567.78;5055528;28;20049;-77
2021/12/02 02:37:18;;;;;;;72.30;65.22;;;;;;;-1.42;100.00;100575.84;5055417;28;20049;-81
2021/12/02 02:39:46;;;;;;;76.32;68.25;;;;;;;-1.13;100.00;100583.72;5055783;28;20398;-80
2021/12/02 02:42:13;;;;;;;74.15;67.10;;;;;;;-0.96;100.00;100577.03;5055378;28;20394;-78
2021/12/02 02:44:40;;;;;;;72.97;66.22;;;;;;;-0.87;100.00;100580.63;5055332;28;20079;-79
2021/12/02 02:47:07;;;;;;;68.82;62.85;;;;;;;-0.66;100.00;100583.13;5055188;28;20045;-80
2021/12/02 02:49:34;;;;;;;67.55;61.55;;;;;;;-0.90;100.00;100570.47;5055296;28;20053;-77
2021/12/02 02:52:01;;;;;;;66.45;60.75;;;;;;;-0.90;100.00;100579.13;5055245;28;20053;-77
2021/12/02 02:54:28;;;;;;;63.75;58.35;;;;;;;-0.91;100.00;100593.09;5055191;28;20059;-77
2021/12/02 02:57:02;;;;;;;62.47;56.67;;;;;;;-0.83;100.00;100598.47;5054326;28;20410;-81
2021/12/02 02:59:33;;;;;;;58.50;53.70;;;;;;;-1.26;100.00;100602.22;5055283;28;20064;-79
2021/12/02 03:02:09;;;;;;;67.65;62.05;;;;;;;-1.24;100.00;100589.88;5167660;22;20118;-80
2021/12/02 03:04:43;;;;;;;69.32;62.78;;;;;;;-1.32;100.00;100591.50;5054764;28;20052;-79
2021/12/02 03:07:17;;;;;;;63.45;57.75;;;;;;;-1.50;100.00;100591.28;5054726;28;20049;-78
2021/12/02 03:09:53;;;;;;;65.78;60.22;;;;;;;-1.47;100.00;100583.22;5054209;28;20115;-80
2021/12/02 03:12:27;;;;;;;65.75;60.35;;;;;;;-1.66;100.00;100581.34;5054394;28;20132;-78
2021/12/02 03:17:41;;;;;;;60.95;55.95;;;;;;;-1.57;100.00;100579.72;5054459;28;20400;-79
2021/12/02 03:20:08;;;;;;;64.20;59.03;;;;;;;-1.52;100.00;100562.75;5054506;28;20118;-79
2021/12/02 03:22:36;;;;;;;60.10;55.13;;;;;;;-1.96;100.00;100564.75;5054594;28;20048;-78
2021/12/02 03:25:03;;;;;;;56.15;51.72;;;;;;;-1.95;100.00;100555.97;5053953;28;20045;-77
2021/12/02 03:27:31;;;;;;;53.80;49.47;;;;;;;-1.93;100.00;100556.69;5054316;28;20044;-79
2021/12/02 03:29:58;;;;;;;52.15;48.17;;;;;;;-1.94;100.00;100557.63;5054323;28;20059;-79
2021/12/02 03:32:25;;;;;;;60.67;55.97;;;;;;;-1.84;100.00;100570.72;5054009;28;20448;-77
2021/12/02 03:34:52;;;;;;;65.38;59.97;;;;;;;-1.74;100.00;100571.56;5054136;28;20053;-78
2021/12/02 03:37:19;;;;;;;73.95;67.00;;;;;;;-1.70;100.00;100572.94;5054245;28;20118;-78
2021/12/02 03:39:46;;;;;;;77.75;70.63;;;;;;;-1.76;100.00;100573.47;5054377;28;20140;-78
2021/12/02 03:42:13;;;;;;;74.30;67.50;;;;;;;-1.75;100.00;100572.53;5053854;28;20045;-79
2021/12/02 03:44:42;;;;;;;74.85;68.03;;;;;;;-1.60;100.00;100570.41;5054017;28;20049;-78
2021/12/02 03:47:08;;;;;;;63.20;57.90;;;;;;;-1.50;100.00;100573.88;5053547;28;20102;-77
2021/12/02 03:49:36;;;;;;;70.78;65.13;;;;;;;-1.49;100.00;100582.50;5054099;28;20118;-78
2021/12/02 03:52:03;;;;;;;62.03;56.83;;;;;;;-1.42;100.00;100581.03;5053632;28;20132;-77
2021/12/02 03:54:29;;;;;;;63.55;58.65;;;;;;;-1.14;100.00;100582.09;5053826;28;20056;-77
2021/12/02 03:56:56;;;;;;;59.83;55.22;;;;;;;-1.38;100.00;100585.84;5053961;28;20117;-78
2021/12/02 03:59:23;;;;;;;62.00;56.58;;;;;;;-1.70;100.00;100585.97;5054098;28;20061;-79
2021/12/02 04:01:51;;;;;;;60.70;55.83;;;;;;;-2.06;100.00;100589.88;5051913;28;20558;-79
2021/12/02 04:04:18;;;;;;;62.30;56.97;;;;;;;-2.01;100.00;100592.94;5053860;28;20056;-80
2021/12/02 04:06:44;;;;;;;70.90;64.55;;;;;;;-1.80;100.00;100586.88;5054098;28;20048;-78
2021/12/02 04:09:15;;;;;;;58.90;53.95;;;;;;;-2.12;100.00;100587.78;5054094;28;20455;-79
2021/12/02 04:11:46;;;;;;;60.30;55.22;;;;;;;-2.08;100.00;100584.81;5054273;28;20061;-80
2021/12/02 04:14:19;;;;;;;68.55;62.50;;;;;;;-1.91;100.00;100572.97;5054023;28;20136;-80
2021/12/02 04:16:53;;;;;;;68.28;61.83;;;;;;;-1.80;100.00;100577.28;5053969;28;20049;-78
2021/12/02 04:19:22;;;;;;;72.68;66.68;;;;;;;-1.78;100.00;100578.00;5053936;28;20053;-78
2021/12/02 04:21:49;;;;;;;71.03;65.07;;;;;;;-1.61;100.00;100569.56;5053521;28;20044;-78
2021/12/02 04:24:16;;;;;;;73.40;67.43;;;;;;;-1.83;100.00;100571.53;5053562;28;20461;-80
2021/12/02 04:26:43;;;;;;;69.60;63.88;;;;;;;-2.07;100.00;100568.22;5053439;28;20045;-79
2021/12/02 04:29:10;;;;;;;64.93;59.47;;;;;;;-2.08;100.00;100564.00;5052735;28;20044;-78
2021/12/02 04:31:37;;;;;;;74.30;67.45;;;;;;;-2.10;100.00;100563.28;5053025;28;20061;-78
2021/12/02 04:34:04;;;;;;;81.32;71.88;;;;;;;-2.27;100.00;100558.66;5053211;28;20045;-79
2021/12/02 04:36:32;;;;;;;72.35;65.40;;;;;;;-2.18;100.00;100555.31;5053147;28;20118;-78
2021/12/02 04:38:59;;;;;;;74.65;67.22;;;;;;;-2.20;100.00;100567.63;5053152;28;20049;-77
2021/12/02 04:41:26;;;;;;;76.40;68.88;;;;;;;-2.13;100.00;100562.72;5052811;28;20057;-78
2021/12/02 04:43:53;;;;;;;63.72;58.00;;;;;;;-2.03;100.00;100562.78;5052969;28;20114;-79
2021/12/02 04:46:19;;;;;;;62.53;57.33;;;;;;;-2.04;100.00;100561.94;5053159;28;20045;-79
2021/12/02 04:48:46;;;;;;;66.35;60.80;;;;;;;-2.09;100.00;100559.75;5052718;28;20126;-80
2021/12/02 04:51:13;;;;;;;67.47;61.63;;;;;;;-1.90;100.00;100568.63;5052850;28;20060;-79
2021/12/02 04:53:41;;;;;;;64.82;59.45;;;;;;;-1.85;100.00;100569.03;5052796;28;20053;-78
2021/12/02 04:56:08;;;;;;;69.90;64.22;;;;;;;-1.83;100.00;100571.53;5052812;28;20049;-78
2021/12/02 04:58:35;;;;;;;67.93;62.72;;;;;;;-1.81;100.00;100572.22;5052881;28;20049;-78
2021/12/02 05:01:02;;;;;;;63.25;58.15;;;;;;;-1.95;100.00;100569.00;5051383;28;20069;-78
2021/12/02 05:03:28;;;;;;;64.43;59.35;;;;;;;-1.70;100.00;100567.75;5052989;28;20460;-78
2021/12/02 05:05:55;;;;;;;66.50;61.42;;;;;;;-1.88;100.00;100564.09;5052871;28;20459;-78
2021/12/02 05:08:22;;;;;;;62.53;57.80;;;;;;;-2.03;100.00;100555.78;5053179;28;20176;-78
2021/12/02 05:10:50;;;;;;;62.00;57.25;;;;;;;-2.03;100.00;100558.38;5052375;28;20459;-80
2021/12/02 05:13:17;;;;;;;66.75;61.72;;;;;;;-2.27;100.00;100558.66;5052920;28;20048;-78
2021/12/02 05:15:43;;;;;;;68.25;62.97;;;;;;;-2.37;100.00;100544.75;5052689;28;20044;-77
2021/12/02 05:18:10;;;;;;;67.50;61.55;;;;;;;-2.36;100.00;100552.44;5052777;28;20045;-78
2021/12/02 05:20:37;;;;;;;76.65;69.68;;;;;;;-2.47;100.00;100549.06;5054139;28;20057;-78
2021/12/02 05:23:04;;;;;;;72.47;66.25;;;;;;;-2.20;100.00;100540.78;5056770;28;20099;-78
2021/12/02 05:25:31;;;;;;;99.22;76.85;;;;;;;-2.38;100.00;100540.50;5056574;28;20053;-79
2021/12/02 05:27:59;;;;;;;65.97;60.00;;;;;;;-2.29;100.00;100557.97;5056609;28;20049;-79
2021/12/02 05:30:26;;;;;;;67.55;61.28;;;;;;;-2.23;100.00;100560.06;5056496;28;20061;-79
2021/12/02 05:32:52;;;;;;;69.55;63.30;;;;;;;-2.14;100.00;100559.28;5056269;28;20057;-80
2021/12/02 05:35:19;;;;;;;73.00;65.90;;;;;;;-2.46;100.00;100556.75;5056093;28;20053;-78
2021/12/02 05:37:46;;;;;;;77.38;69.50;;;;;;;-2.48;100.00;100555.22;5056090;28;20511;-77
2021/12/02 05:40:13;;;;;;;80.25;71.70;;;;;;;-2.27;100.00;100556.03;5055847;28;20456;-82
2021/12/02 05:42:40;;;;;;;81.20;73.10;;;;;;;-2.03;100.00;100554.97;5055842;28;20053;-77
2021/12/02 05:45:09;;;;;;;74.03;66.70;;;;;;;-1.89;100.00;100559.84;5055922;28;20118;-78
2021/12/02 05:47:36;;;;;;;74.78;67.82;;;;;;;-1.87;100.00;100561.38;5055978;28;20053;-78
2021/12/02 05:50:10;;;;;;;77.03;69.93;;;;;;;-1.89;100.00;100554.63;5055676;28;20064;-79
2021/12/02 05:52:36;;;;;;;71.90;64.90;;;;;;;-1.84;100.00;100544.66;5055363;28;20114;-79
2021/12/02 05:55:03;;;;;;;90.22;81.85;;;;;;;-1.39;100.00;100529.50;5056657;28;20056;-79
2021/12/02 05:57:37;;;;;;;77.95;70.95;;;;;;;-1.00;100.00;100516.53;5056530;28;20455;-81
2021/12/02 06:00:06;;;;;;;86.63;77.00;;;;;;;-1.20;100.00;100515.66;5056208;28;20056;-78
2021/12/02 06:02:36;;;;;;;77.35;69.25;;;;;;;-1.05;100.00;100518.72;5054960;28;20052;-78
2021/12/02 06:05:03;;;;;;;87.25;78.03;;;;;;;-0.37;100.00;100523.91;5056319;28;20080;-80
2021/12/02 06:07:30;;;;;;;88.35;79.05;;;;;;;-0.14;100.00;100524.44;5056016;28;20526;-79
2021/12/02 06:09:57;;;;;;;81.55;73.28;;;;;;;0.11;100.00;100532.59;5056060;28;20477;-78
2021/12/02 06:12:24;;;;;;;82.15;73.95;;;;;;;0.45;100.00;100535.47;5056313;28;20059;-79
2021/12/02 06:14:51;;;;;;;85.60;76.28;;;;;;;0.77;100.00;100529.81;5055959;28;20473;-80
2021/12/02 06:17:18;;;;;;;78.13;69.65;;;;;;;0.81;100.00;100536.41;5056033;28;20526;-82
2021/12/02 06:19:46;;;;;;;80.72;72.18;;;;;;;1.17;100.00;100531.22;5056191;28;20052;-81
2021/12/02 06:22:14;;;;;;;83.60;75.38;;;;;;;1.17;100.00;100535.63;5056142;28;20048;-79
2021/12/02 06:24:46;;;;;;;75.57;67.50;;;;;;;1.89;100.00;100534.56;5055816;28;20466;-78
2021/12/02 06:27:13;;;;;;;77.75;68.90;;;;;;;1.96;100.00;100525.09;5055986;28;20049;-78
2021/12/02 06:29:39;;;;;;;83.15;67.57;;;;;;;1.94;100.00;100524.47;5055883;28;20519;-78
2021/12/02 06:32:08;;;;;;;85.07;76.43;;;;;;;2.03;100.00;100525.34;5054860;28;20049;-80
2021/12/02 06:34:35;;;;;;;90.68;81.28;;;;;;;2.36;100.00;100521.09;5055691;28;20079;-78
2021/12/02 06:37:04;;;;;;;92.30;82.70;;;;;;;3.19;100.00;100522.94;5055813;28;20056;-80
2021/12/02 06:39:31;;;;;;;90.05;80.75;;;;;;;3.18;100.00;100519.50;5055894;28;20057;-80
2021/12/02 06:41:57;;;;;;;84.78;75.72;;;;;;;3.67;100.00;100514.25;5056372;28;20125;-80
2021/12/02 06:44:24;;;;;;;81.88;74.13;;;;;;;3.59;100.00;100516.06;5055667;28;20443;-80
2021/12/02 06:46:51;;;;;;;76.35;69.60;;;;;;;3.80;100.00;100529.50;5055343;28;20420;-82
2021/12/02 06:49:17;;;;;;;77.03;70.07;;;;;;;3.84;100.00;100527.34;5055193;28;20064;-82
2021/12/02 06:51:44;;;;;;;76.70;69.70;;;;;;;4.73;100.00;100523.63;5055591;28;20054;-81
2021/12/02 06:54:12;;;;;;;76.68;69.88;;;;;;;4.95;100.00;100522.03;5055657;28;20052;-80
2021/12/02 06:56:39;;;;;;;76.72;70.25;;;;;;;5.80;100.00;100528.13;5055549;28;20049;-78
2021/12/02 06:59:06;;;;;;;83.93;76.57;;;;;;;5.67;100.00;100534.81;5055386;28;20049;-80
2021/12/02 07:01:34;;;;;;;76.20;69.35;;;;;;;5.80;100.00;100525.50;5053629;28;20130;-80
2021/12/02 07:04:00;;;;;;;78.85;71.43;;;;;;;5.31;100.00;100541.72;5055305;28;20044;-80
2021/12/02 07:06:27;;;;;;;80.50;72.82;;;;;;;5.94;100.00;100536.09;5054989;28;20045;-80
2021/12/02 07:08:54;;;;;;;80.53;72.75;;;;;;;6.51;100.00;100534.66;5054920;28;20049;-78
2021/12/02 07:11:22;;;;;;;76.78;69.70;;;;;;;6.05;100.00;100523.47;5054908;28;20448;-78
2021/12/02 07:13:50;;;;;;;76.75;70.38;;;;;;;6.12;100.00;100519.94;5055191;28;20056;-79
2021/12/02 07:16:19;;;;;;;77.68;70.57;;;;;;;6.95;100.00;100523.19;5055175;28;20053;-80
2021/12/02 07:18:53;;;;;;;82.32;74.60;;;;;;;7.74;100.00;100525.72;5055065;28;20128;-80
2021/12/02 07:21:20;;;;;;;82.50;74.90;;;;;;;7.28;100.00;100522.69;5054998;28;20070;-78
2021/12/02 07:23:46;;;;;;;82.00;74.63;;;;;;;7.45;100.00;100516.16;5054681;28;20049;-80
2021/12/02 07:26:13;;;;;;;81.78;74.28;;;;;;;7.35;100.00;100526.22;5054618;28;20114;-79
2021/12/02 07:28:42;;;;;;;79.45;72.55;;;;;;;7.71;100.00;100526.13;5054774;28;20048;-80
2021/12/02 07:31:09;;;;;;;80.93;73.68;;;;;;;7.86;100.00;100515.44;5054665;28;20130;-80
2021/12/02 07:33:38;;;;;;;79.55;72.68;;;;;;;8.39;100.00;100515.81;5055140;28;20083;-80
2021/12/02 07:36:06;;;;;;;82.72;75.13;;;;;;;7.99;100.00;100510.28;5054697;28;20114;-80
2021/12/02 07:38:33;;;;;;;80.15;72.45;;;;;;;8.09;100.00;100514.38;5054675;28;20114;-79
2021/12/02 07:41:03;;;;;;;85.53;76.32;;;;;;;9.27;100.00;100518.53;5054241;28;20493;-79
2021/12/02 07:43:32;;;;;;;80.20;72.50;;;;;;;8.59;100.00;100499.19;5054305;28;20056;-80
2021/12/02 07:46:01;;;;;;;73.35;66.13;;;;;;;8.57;100.00;100517.94;5054518;28;20057;-78
2021/12/02 07:48:28;;;;;;;71.82;64.97;;;;;;;8.44;100.00;100510.75;5054177;28;20497;-80
2021/12/02 07:50:57;;;;;;;73.20;66.68;;;;;;;8.94;100.00;100505.22;5054482;28;20045;-80
2021/12/02 07:53:26;;;;;;;73.72;66.88;;;;;;;9.13;100.00;100509.72;5054409;28;20048;-79
2021/12/02 07:55:54;;;;;;;73.32;66.88;;;;;;;9.72;100.00;100508.13;5054138;28;20041;-78
2021/12/02 07:58:24;;;;;;;72.20;65.80;;;;;;;9.84;100.00;100503.84;5054365;28;20049;-78
2021/12/02 08:00:52;;;;;;;69.50;64.00;;;;;;;9.48;100.00;100506.91;5054080;28;20088;-78
2021/12/02 08:03:21;;;;;;;70.43;64.70;;;;;;;10.64;100.00;100511.59;5052667;28;20141;-78
2021/12/02 08:05:47;;;;;;;71.75;66.00;;;;;;;11.16;100.00;100506.22;5054118;28;20493;-78
2021/12/02 08:08:14;;;;;;;72.50;66.63;;;;;;;11.28;100.00;100498.38;5054071;28;20053;-78
2021/12/02 08:10:41;;;;;;;77.35;70.10;;;;;;;11.11;100.00;100506.88;5054331;28;20053;-79
2021/12/02 08:13:08;;;;;;;77.65;70.60;;;;;;;11.75;100.00;100504.94;5053727;28;20420;-77
2021/12/02 08:15:35;;;;;;;75.30;68.65;;;;;;;12.10;100.00;100507.06;5054020;28;20044;-78
2021/12/02 08:18:01;;;;;;;78.78;71.43;;;;;;;11.47;100.00;100494.75;5053755;28;20555;-77
2021/12/02 08:20:30;;;;;;;78.68;71.18;;;;;;;11.76;100.00;100500.44;5053975;28;20053;-79
2021/12/02 08:22:58;;;;;;;72.47;66.20;;;;;;;11.64;100.00;100503.00;5053806;28;20115;-79
2021/12/02 08:25:27;;;;;;;75.40;68.72;;;;;;;11.26;100.00;100503.09;5053595;28;20044;-78
2021/12/02 08:27:55;;;;;;;74.85;68.10;;;;;;;11.83;100.00;100511.81;5053620;28;20477;-78
2021/12/02 08:30:25;;;;;;;71.40;65.40;;;;;;;11.79;100.00;100507.97;5053484;28;20144;-79
2021/12/02 08:32:52;;;;;;;73.22;66.95;;;;;;;12.16;100.00;100508.84;5053797;28;20144;-79
2021/12/02 08:35:19;;;;;;;73.97;67.07;;;;;;;12.38;100.00;100506.59;5054056;28;20053;-80
2021/12/02 08:37:51;;;;;;;78.00;71.07;;;;;;;12.45;100.00;100512.63;5053355;28;20049;-78
2021/12/02 08:40:20;;;;;;;78.15;70.22;;;;;;;12.90;100.00;100506.13;5053700;28;20075;-78
2021/12/02 08:42:47;;;;;;;76.93;70.28;;;;;;;12.73;100.00;100512.09;5053468;28;20049;-78
2021/12/02 08:45:14;;;;;;;78.18;70.90;;;;;;;13.59;100.00;100502.03;5053823;28;20048;-78
2021/12/02 08:47:45;;;;;;;72.53;66.53;;;;;;;13.44;100.00;100502.50;5053498;28;20048;-79
2021/12/02 08:50:13;;;;;;;71.80;65.63;;;;;;;14.13;100.00;100500.06;5053607;28;20136;-79
2021/12/02 08:52:40;;;;;;;77.78;70.82;;;;;;;14.02;100.00;100497.41;5053244;28;20469;-80
2021/12/02 08:55:09;;;;;;;73.95;67.82;;;;;;;14.44;100.00;100485.47;5052797;28;20072;-80
2021/12/02 08:57:36;;;;;;;73.47;67.35;;;;;;;14.74;100.00;100484.47;5053545;28;20119;-79
2021/12/02 09:00:06;;;;;;;72.72;66.70;;;;;;;14.23;100.00;100483.44;5053088;28;20481;-80
2021/12/02 09:02:33;;;;;;;75.60;69.00;;;;;;;14.75;100.00;100485.28;5051797;28;20049;-82
2021/12/02 09:04:59;;;;;;;74.75;68.45;;;;;;;15.64;96.90;100473.91;5053429;28;20110;-80
2021/12/02 09:07:26;;;;;;;74.28;67.03;;;;;;;15.43;92.15;100457.56;5053449;28;20052;-80
2021/12/02 09:09:53;;;;;;;74.28;67.93;;;;;;;16.27;95.16;100452.03;5053337;28;20067;-79
2021/12/02 09:12:21;;;;;;;74.63;68.32;;;;;;;14.62;95.63;100462.31;5053325;28;20049;-79
2021/12/02 09:14:48;;;;;;;74.28;68.00;;;;;;;15.14;93.70;100456.81;5053042;28;20075;-79
2021/12/02 09:17:15;;;;;;;72.80;66.72;;;;;;;16.38;88.45;100446.81;5053214;28;20086;-81
2021/12/02 09:19:42;;;;;;;74.93;68.78;;;;;;;15.95;92.52;100435.84;5052939;28;20469;-80
2021/12/02 09:22:08;;;;;;;73.05;67.15;;;;;;;17.17;83.09;100438.22;5053292;28;20045;-80
2021/12/02 09:24:36;;;;;;;79.55;72.35;;;;;;;16.51;78.10;100434.88;5053205;28;20045;-79
2021/12/02 09:27:03;;;;;;;74.78;68.40;;;;;;;17.04;77.21;100435.97;5053084;28;20456;-79
2021/12/02 09:29:31;;;;;;;74.47;68.20;;;;;;;16.87;78.12;100430.72;5053041;28;20128;-80
2021/12/02 09:31:58;;;;;;;74.70;68.50;;;;;;;16.20;80.65;100432.66;5053159;28;20391;-79
2021/12/02 09:34:26;;;;;;;74.28;68.10;;;;;;;16.60;78.54;100431.50;5053212;28;20470;-79
2021/12/02 09:36:53;;;;;;;76.82;70.50;;;;;;;16.61;70.39;100427.75;5053555;28;20053;-79
2021/12/02 09:39:20;;;;;;;75.40;69.20;;;;;;;17.22;69.12;100427.53;5052790;28;20056;-80
2021/12/02 09:41:47;;;;;;;74.82;68.43;;;;;;;17.46;68.16;100427.13;5053022;28;20059;-79
2021/12/02 09:44:15;;;;;;;73.13;67.03;;;;;;;17.60;68.63;100414.88;5053059;28;20045;-81
2021/12/02 09:46:44;;;;;;;77.15;70.85;;;;;;;17.05;57.31;100410.75;5052986;28;20111;-82
2021/12/02 09:49:12;;;;;;;75.95;69.65;;;;;;;16.85;73.30;100404.16;5052888;28;20045;-80
2021/12/02 09:51:46;;;;;;;77.28;70.57;;;;;;;18.11;55.43;100412.47;5052594;28;20465;-79
2021/12/02 09:54:17;;;;;;;83.30;76.50;;;;;;;18.25;52.18;100400.16;5052832;28;20053;-78
2021/12/02 09:56:47;;;;;;;80.38;73.78;;;;;;;17.26;55.17;100393.72;5052928;28;20051;-78
2021/12/02 09:59:24;;;;;;;78.55;72.25;;;;;;;16.94;63.04;100394.56;5052862;28;20041;-78
2021/12/02 10:01:58;;;;;;;78.47;72.18;;;;;;;18.05;58.03;100390.16;5051324;28;20111;-79
2021/12/02 10:04:26;;;;;;;78.15;71.85;;;;;;;18.36;59.39;100384.84;5052578;28;20049;-78
2021/12/02 10:07:18;;;;;;;75.15;69.30;;;;;;;17.89;57.81;100383.09;5054521;28;20049;-77
2021/12/02 10:09:56;;;;;;;74.13;68.43;;;;;;;17.90;52.43;100386.59;5055951;28;20044;-77
2021/12/02 10:12:24;;;;;;;77.22;71.05;;;;;;;19.61;46.62;100377.34;5056028;28;20083;-77
2021/12/02 10:14:54;;;;;;;77.13;71.13;;;;;;;18.66;44.11;100369.84;5055996;28;20064;-78
2021/12/02 10:17:32;;;;;;;73.60;67.72;;;;;;;15.61;59.44;100375.34;5056190;28;20065;-78
2021/12/02 10:20:21;;;;;;;73.25;67.35;;;;;;;16.82;61.35;100369.78;5055942;28;20055;-79
2021/12/02 10:23:10;;;;;;;78.22;72.03;;;;;;;16.99;61.30;100364.28;5055809;28;20045;-78
2021/12/02 10:25:37;;;;;;;75.60;69.65;;;;;;;16.44;72.77;100347.44;5055726;28;20059;-78
2021/12/02 10:28:06;;;;;;;74.75;68.65;;;;;;;16.09;68.17;100355.09;5055768;28;20059;-78
2021/12/02 10:30:33;;;;;;;76.15;69.95;;;;;;;15.52;77.08;100343.69;5055893;28;20049;-78
2021/12/02 10:33:02;;;;;;;74.78;68.75;;;;;;;15.56;79.70;100341.31;5055690;28;20114;-78
2021/12/02 10:35:41;;;;;;;75.32;69.25;;;;;;;15.44;74.81;100335.28;5055989;28;20057;-79
2021/12/02 10:38:07;;;;;;;72.97;67.35;;;;;;;15.70;80.49;100339.09;5055609;28;20118;-78
2021/12/02 10:40:36;;;;;;;71.82;66.43;;;;;;;15.57;80.95;100340.25;5055568;28;20056;-79
2021/12/02 10:43:08;;;;;;;77.60;71.40;;;;;;;15.37;85.84;100329.28;5055690;28;20492;-78
2021/12/02 10:45:35;;;;;;;76.57;70.40;;;;;;;15.77;83.14;100329.03;5055520;28;20489;-78
2021/12/02 10:48:03;;;;;;;73.80;67.80;;;;;;;15.58;88.36;100325.81;5055358;28;20053;-78
2021/12/02 10:50:39;;;;;;;74.72;68.68;;;;;;;15.83;87.00;100319.19;5055552;28;20056;-79
2021/12/02 10:53:07;;;;;;;76.53;70.30;;;;;;;16.05;83.86;100313.81;5055237;28;20492;-78
2021/12/02 10:55:35;;;;;;;77.18;70.88;;;;;;;16.23;80.71;100314.25;5055231;28;20469;-77
2021/12/02 10:58:03;;;;;;;75.60;69.43;;;;;;;16.03;86.35;100308.69;5055268;28;20068;-78
2021/12/02 11:00:32;;;;;;;75.95;69.85;;;;;;;16.57;79.38;100308.66;5055362;28;20463;-78
2021/12/02 11:03:08;;;;;;;75.07;69.00;;;;;;;17.99;73.11;100302.53;5053728;28;20470;-78
2021/12/02 11:05:45;;;;;;;76.43;70.22;;;;;;;17.85;53.51;100301.41;5051677;28;20136;-78
2021/12/02 11:08:13;;;;;;;76.05;69.95;;;;;;;18.85;47.72;100282.19;5050996;28;20057;-78
2021/12/02 11:10:42;;;;;;;74.20;68.43;;;;;;;18.10;49.30;100291.81;5038608;28;20081;-78
2021/12/02 11:13:11;;;;;;;73.82;68.13;;;;;;;18.73;43.56;100282.47;5037048;28;20053;-78
2021/12/02 11:15:40;;;;;;;75.50;69.60;;;;;;;18.67;43.53;100283.53;5037033;28;20483;-78